4A9

Isbell Field Airport

Fort Payne, Alabama, USA
METAR K4A9 191655Z AUTO 23010KT 4SM -RA BR OVC012 14/13 A2971 RMK AO2 P0008 T01440135
Observed Flight Rules
Jan-19 @ 16:55 UTC (24 minutes ago) Marginal Visual Flight Rules
Wind Visibility Clouds Conditions
230° at 10 knots 4 miles
  • Overcast at 1,200' AGL
  • Light Rain
  • Mist
Temperatures Readings Precipitation
Current 14°C / 57°F
Dewpoint 14°C / 57°F
Humidity 100%
Altimeter 29.71" Hg
Pressure 1006.12 hPa
Elevation 267
Current Rain 0.08
METAR K4A9 191655Z AUTO 23010KT 4SM -RA BR OVC012 14/13 A2971 RMK AO2 P0008 T01440135
Observed Flight Rules
Jan-19 @ 16:55 UTC
(24 minutes ago)
MVFR
Wind Visibility
230° at 10 knots 4 miles
Clouds
  • Overcast at 1,200' AGL
Conditions
  • Light Rain
  • Mist
Temperature Dewpoint
14°C / 57°F 14°C / 57°F
Humidity Altimeter Pressure
100% 29.71" Hg 1006.12 hPa
Current Rain
0.08